Time;durP1;ratioP1;P1;durP2;ratioP2;P2;SDS_P1;SDS_P2;PMS_P1;PMS_P2;Temp;Humidity;BMP_temperature;BMP_pressure;BME280_temperature;BME280_humidity;BME280_pressure;Samples;Min_cycle;Max_cycle;Signal;HPM_P1;HPM_P2
2023/01/29 00:02:04;;;;;;;22.45;13.68;;;;;;;;;;4961362;28;20053;-64
2023/01/29 00:04:30;;;;;;;19.48;12.48;;;;;;;;;;4959471;28;20822;-64
2023/01/29 00:06:56;;;;;;;22.13;13.65;;;;;;;;;;4976254;28;20042;-64
2023/01/29 00:09:22;;;;;;;21.25;12.52;;;;;;;;;;4967132;28;20042;-64
2023/01/29 00:11:48;;;;;;;26.10;12.45;;;;;;;;;;4983886;28;20378;-64
2023/01/29 00:14:14;;;;;;;22.30;12.23;;;;;;;;;;4957353;28;20104;-64
2023/01/29 00:16:40;;;;;;;24.85;13.65;;;;;;;;;;4956960;28;20504;-64
2023/01/29 00:19:06;;;;;;;23.13;13.18;;;;;;;;;;4982188;28;20043;-63
2023/01/29 00:21:32;;;;;;;22.00;13.07;;;;;;;;;;4983497;28;20097;-64
2023/01/29 00:23:58;;;;;;;22.95;14.35;;;;;;;;;;4977210;28;20083;-64
2023/01/29 00:26:25;;;;;;;25.35;13.10;;;;;;;;;;4975570;28;20038;-64
2023/01/29 00:28:51;;;;;;;20.52;12.30;;;;;;;;;;4975311;28;20433;-64
2023/01/29 00:31:21;;;;;;;23.70;12.90;;;;;;;;;;4978425;28;20050;-64
2023/01/29 00:33:47;;;;;;;19.65;12.60;;;;;;;;;;4973090;28;20050;-64
2023/01/29 00:36:14;;;;;;;18.63;12.82;;;;;;;;;;4975472;28;20522;-64
2023/01/29 00:38:40;;;;;;;26.08;14.25;;;;;;;;;;4955902;28;20054;-63
2023/01/29 00:46:37;;;;;;;22.52;12.98;;;;;;;;;;4981044;28;20046;-64
2023/01/29 00:49:03;;;;;;;23.38;14.73;;;;;;;;;;4953383;28;20104;-64
2023/01/29 00:51:30;;;;;;;23.17;13.88;;;;;;;;;;4973584;28;20045;-64
2023/01/29 00:53:57;;;;;;;25.08;14.23;;;;;;;;;;4971291;28;20038;-64
2023/01/29 00:56:27;;;;;;;21.63;14.05;;;4.60;99.90;;;;;;4959060;28;20058;-64
2023/01/29 00:58:53;;;;;;;23.55;14.80;;;;;;;;;;4980440;28;21004;-64
2023/01/29 01:04:04;;;;;;;22.67;14.10;;;;;;;;;;4957173;28;20409;-64
2023/01/29 01:06:30;;;;;;;24.75;14.50;;;;;;;;;;4974350;28;20775;-64
2023/01/29 01:11:41;;;;;;;20.63;13.48;;;;;;;;;;4978780;28;20897;-63
2023/01/29 01:14:07;;;;;;;21.65;13.52;;;;;;;;;;4980665;28;20046;-64
2023/01/29 01:16:33;;;;;;;23.85;13.43;;;4.50;99.90;;;;;;4958932;28;20081;-64
2023/01/29 01:18:59;;;;;;;18.40;12.75;;;;;;;;;;4956520;28;20234;-64
2023/01/29 01:21:25;;;;;;;21.33;13.07;;;;;;;;;;4980440;28;20113;-64
2023/01/29 01:23:51;;;;;;;22.40;12.52;;;;;;;;;;4972955;28;20041;-64
2023/01/29 01:26:18;;;;;;;17.70;11.82;;;;;;;;;;4978401;28;20137;-64
2023/01/29 01:28:43;;;;;;;20.65;12.85;;;4.50;99.90;;;;;;4980859;28;20095;-64
2023/01/29 01:31:11;;;;;;;20.83;13.38;;;;;;;;;;4968324;28;20587;-64
2023/01/29 01:33:37;;;;;;;20.80;12.73;;;;;;;;;;4976175;28;20089;-64
2023/01/29 01:36:03;;;;;;;21.45;13.50;;;;;;;;;;4980410;28;20047;-64
2023/01/29 01:38:28;;;;;;;20.63;11.80;;;4.60;99.90;;;;;;4957221;28;20037;-64
2023/01/29 01:40:54;;;;;;;20.08;12.55;;;;;;;;;;4981121;28;20034;-65
2023/01/29 01:43:21;;;;;;;20.08;12.60;;;;;;;;;;4962361;28;20128;-64
2023/01/29 01:45:47;;;;;;;22.80;13.23;;;;;;;;;;5818147;23;20026;-64
2023/01/29 01:48:21;;;;;;;17.10;12.00;;;;;;;;;;4982250;28;20061;-64
2023/01/29 01:50:52;;;;;;;17.58;12.25;;;;;;;;;;4967548;28;20543;-64
2023/01/29 01:53:37;;;;;;;21.65;12.43;;;;;;;;;;4986913;28;20045;-64
2023/01/29 01:56:26;;;;;;;19.67;12.27;;;4.50;99.90;;;;;;4967235;28;20397;-64
2023/01/29 01:58:55;;;;;;;16.90;11.32;;;4.50;99.90;;;;;;4965510;28;20054;-64
2023/01/29 02:10:08;;;;;;;15.27;10.70;;;;;;;;;;4968422;28;20058;-64
2023/01/29 02:12:34;;;;;;;15.98;10.55;;;;;;;;;;4968297;28;20042;-64
2023/01/29 02:15:00;;;;;;;16.90;10.13;;;;;;;;;;4952349;28;20077;-64
2023/01/29 02:17:26;;;;;;;17.92;9.82;;;;;;;;;;4985648;28;20042;-64
2023/01/29 02:19:56;;;;;;;17.20;10.73;;;;;;;;;;4986083;28;20046;-64
2023/01/29 02:22:31;;;;;;;18.02;11.15;;;;;;;;;;4985538;28;20073;-64
2023/01/29 02:24:57;;;;;;;19.30;11.65;;;;;;;;;;4985848;28;21802;-64
2023/01/29 02:27:27;;;;;;;19.73;11.75;;;;;;;;;;4966823;28;20105;-64
2023/01/29 02:30:13;;;;;;;18.48;10.82;;;;;;;;;;4965502;28;20050;-64
2023/01/29 02:33:06;;;;;;;17.23;11.15;;;;;;;;;;4955576;28;20058;-64
2023/01/29 02:35:41;;;;;;;18.20;11.05;;;;;;;;;;4960394;28;20728;-64
2023/01/29 02:38:12;;;;;;;17.48;10.75;;;;;;;;;;4982216;28;20057;-64
2023/01/29 02:40:44;;;;;;;18.85;10.95;;;;;;;;;;4968138;28;20101;-64
2023/01/29 02:43:17;;;;;;;19.70;11.30;;;;;;;;;;4968063;28;20046;-64
2023/01/29 02:45:59;;;;;;;17.90;10.88;;;;;;;;;;4985670;28;20165;-64
2023/01/29 02:48:28;;;;;;;20.05;11.75;;;;;;;;;;4981913;28;20607;-65
2023/01/29 02:51:00;;;;;;;16.63;11.52;;;;;;;;;;4967948;28;20049;-64
2023/01/29 02:53:26;;;;;;;16.08;10.75;;;;;;;;;;4967354;28;20045;-64
2023/01/29 02:56:07;;;;;;;18.15;11.20;;;;;;;;;;4967604;28;20047;-64
2023/01/29 02:58:36;;;;;;;22.02;11.52;;;;;;;;;;4962443;28;20061;-64
2023/01/29 03:01:14;;;;;;;19.00;11.45;;;;;;;;;;4966142;28;20042;-65
2023/01/29 03:03:42;;;;;;;22.40;13.27;;;;;;;;;;4985210;28;20049;-64
2023/01/29 03:06:19;;;;;;;17.90;11.90;;;;;;;;;;4985308;28;20093;-64
2023/01/29 03:08:52;;;;;;;20.92;12.75;;;;;;;;;;4964859;28;20093;-64
2023/01/29 03:11:19;;;;;;;21.52;12.45;;;;;;;;;;4983395;28;20089;-64
2023/01/29 03:13:49;;;;;;;26.02;13.23;;;;;;;;;;4968050;28;20050;-64
2023/01/29 03:16:33;;;;;;;18.52;12.38;;;;;;;;;;4967612;28;20046;-64
2023/01/29 03:19:02;;;;;;;18.67;12.30;;;;;;;;;;4968071;28;20104;-64
2023/01/29 03:21:50;;;;;;;20.63;12.45;;;;;;;;;;4985199;28;20372;-64
2023/01/29 03:32:37;;;;;;;19.85;11.57;;;;;;;;;;4967288;28;20307;-64
2023/01/29 03:35:04;;;;;;;22.25;14.13;;;;;;;;;;4967979;28;20100;-63
2023/01/29 03:37:43;;;;;;;19.38;12.80;;;;;;;;;;4965645;28;20048;-64
2023/01/29 03:40:10;;;;;;;20.98;13.07;;;;;;;;;;4964862;28;20042;-65
2023/01/29 03:42:43;;;;;;;23.25;13.10;;;;;;;;;;4967551;28;20043;-64
2023/01/29 03:45:24;;;;;;;20.02;11.90;;;;;;;;;;4967685;28;20047;-64
2023/01/29 03:48:13;;;;;;;20.58;13.00;;;4.60;99.90;;;;;;4985669;28;20038;-64
2023/01/29 03:50:44;;;;;;;20.65;12.68;;;;;;;;;;4970919;28;20093;-64
2023/01/29 03:53:20;;;;;;;23.00;13.27;;;;;;;;;;4971576;28;20050;-64
2023/01/29 03:56:00;;;;;;;23.75;13.98;;;;;;;;;;4987884;28;20038;-64
2023/01/29 03:58:46;;;;;;;26.67;14.63;;;;;;;;;;4986874;28;20087;-64
2023/01/29 04:01:33;;;;;;;19.05;13.05;;;;;;;;;;4970818;28;20100;-64
2023/01/29 04:04:23;;;;;;;24.27;14.90;;;4.60;99.90;;;;;;4983142;28;20050;-65
2023/01/29 04:06:51;;;;;;;25.08;14.45;;;;;;;;;;4970300;28;20061;-64
2023/01/29 04:09:44;;;;;;;25.88;14.95;;;;;;;;;;4967289;28;20050;-64
2023/01/29 04:12:11;;;;;;;24.95;15.13;;;;;;;;;;4966337;28;20062;-64
2023/01/29 04:14:38;;;;;;;25.92;15.57;;;;;;;;;;4988156;28;20046;-64
2023/01/29 04:17:16;;;;;;;25.15;16.17;;;;;;;;;;4988152;28;20129;-64
2023/01/29 04:19:42;;;;;;;29.15;16.58;;;;;;;;;;4988363;28;20050;-64
2023/01/29 04:22:14;;;;;;;25.00;15.88;;;;;;;;;;4988142;28;20402;-63
2023/01/29 04:24:41;;;;;;;24.90;16.67;;;;;;;;;;4987935;28;20038;-64
2023/01/29 04:27:22;;;;;;;28.33;15.93;;;;;;;;;;4987561;28;20050;-64
2023/01/29 04:29:51;;;;;;;22.80;15.88;;;;;;;;;;4970328;28;20052;-64
2023/01/29 04:35:48;;;;;;;27.70;16.58;;;;;;;;;;4986485;28;20037;-64
2023/01/29 04:38:35;;;;;;;28.60;16.05;;;;;;;;;;4967724;28;20453;-64
2023/01/29 04:41:04;;;;;;;28.02;17.38;;;;;;;;;;4984854;28;20050;-64
2023/01/29 04:43:55;;;;;;;29.42;17.50;;;;;;;;;;4970071;28;20492;-64
2023/01/29 04:46:39;;;;;;;32.72;17.60;;;;;;;;;;4990573;28;20443;-64
2023/01/29 04:49:08;;;;;;;28.77;16.83;;;;;;;;;;4984372;28;20045;-64
2023/01/29 04:51:39;;;;;;;25.88;17.35;;;;;;;;;;4969557;28;20049;-64
2023/01/29 04:54:18;;;;;;;28.50;16.63;;;;;;;;;;4987480;28;20038;-64
2023/01/29 04:56:44;;;;;;;28.05;16.88;;;;;;;;;;4984633;28;20058;-64
2023/01/29 04:59:15;;;;;;;24.70;16.40;;;;;;;;;;4969825;28;20551;-64
2023/01/29 05:01:41;;;;;;;29.65;17.08;;;;;;;;;;4969632;28;20078;-64
2023/01/29 05:04:09;;;;;;;33.65;16.50;;;;;;;;;;4987470;28;20404;-64
2023/01/29 05:06:35;;;;;;;30.75;17.30;;;;;;;;;;4987223;28;20054;-64
2023/01/29 05:12:25;;;;;;;27.15;17.48;;;;;;;;;;4986464;28;20037;-64
2023/01/29 05:14:52;;;;;;;28.58;17.80;;;;;;;;;;4986833;28;20057;-64
2023/01/29 05:17:19;;;;;;;27.45;17.52;;;;;;;;;;4986920;28;20042;-64
2023/01/29 05:19:46;;;;;;;28.00;17.75;;;;;;;;;;4968758;28;20152;-65
2023/01/29 05:22:14;;;;;;;28.88;16.70;;;;;;;;;;4986730;28;20034;-64
2023/01/29 05:24:40;;;;;;;31.73;18.20;;;;;;;;;;4987429;28;20034;-64
2023/01/29 05:29:51;;;;;;;27.90;17.63;;;;;;;;;;4965875;28;20153;-64
2023/01/29 05:32:17;;;;;;;28.10;17.40;;;;;;;;;;4969302;28;20149;-64
2023/01/29 05:34:43;;;;;;;31.70;18.40;;;;;;;;;;4968661;28;20062;-64
2023/01/29 05:37:10;;;;;;;30.25;18.98;;;;;;;;;;4969519;28;20053;-64
2023/01/29 05:39:35;;;;;;;27.88;17.70;;;;;;;;;;4969017;28;20052;-63
2023/01/29 05:42:02;;;;;;;30.83;17.88;;;;;;;;;;4986801;28;20042;-64
2023/01/29 05:44:28;;;;;;;28.27;17.52;;;;;;;;;;4969255;28;20098;-64
2023/01/29 05:46:54;;;;;;;27.00;17.58;;;;;;;;;;4986708;28;20046;-64
2023/01/29 05:49:21;;;;;;;28.65;17.83;;;;;;;;;;4968760;28;20640;-64
2023/01/29 05:51:47;;;;;;;27.92;17.88;;;;;;;;;;4968905;28;20496;-64
2023/01/29 05:54:13;;;;;;;27.65;17.30;;;;;;;;;;4987034;28;20054;-65
2023/01/29 05:56:39;;;;;;;29.52;17.23;;;;;;;;;;4986162;28;20072;-64
2023/01/29 05:59:06;;;;;;;27.83;16.90;;;;;;;;;;4987045;28;20056;-64
2023/01/29 06:01:32;;;;;;;25.63;17.05;;;;;;;;;;4986630;28;20419;-64
2023/01/29 06:03:58;;;;;;;24.08;15.90;;;;;;;;;;4985707;28;20058;-64
2023/01/29 06:06:24;;;;;;;28.30;16.92;;;;;;;;;;4986323;28;20290;-64
2023/01/29 06:08:50;;;;;;;27.60;17.40;;;;;;;;;;4965046;28;20774;-64
2023/01/29 06:11:17;;;;;;;24.45;16.60;;;;;;;;;;4967125;28;20121;-64
2023/01/29 06:13:43;;;;;;;27.38;17.73;;;;;;;;;;4985737;28;20626;-64
2023/01/29 06:16:10;;;;;;;34.35;18.83;;;;;;;;;;4968674;28;20052;-65
2023/01/29 06:18:36;;;;;;;25.05;18.90;;;;;;;;;;4968247;28;20535;-64
2023/01/29 06:21:06;;;;;;;30.33;19.10;;;;;;;;;;4985446;28;20072;-64
2023/01/29 06:23:32;;;;;;;26.67;18.88;;;;;;;;;;4968638;28;20046;-64
2023/01/29 06:26:10;;;;;;;33.78;20.35;;;;;;;;;;4968330;28;20109;-64
2023/01/29 06:28:36;;;;;;;27.20;19.35;;;;;;;;;;4966115;28;20834;-64
2023/01/29 06:31:03;;;;;;;29.70;20.02;;;;;;;;;;4968088;28;20053;-64
2023/01/29 06:33:29;;;;;;;32.67;22.27;;;;;;;;;;4967954;28;20046;-64
2023/01/29 06:35:56;;;;;;;32.15;22.70;;;;;;;;;;4967757;28;20128;-64
2023/01/29 06:38:23;;;;;;;32.17;22.60;;;;;;;;;;4985580;28;20117;-64
2023/01/29 06:40:49;;;;;;;37.22;23.83;;;;;;;;;;4967902;28;20042;-64
2023/01/29 06:43:15;;;;;;;35.15;23.63;;;;;;;;;;4967802;28;20066;-64
2023/01/29 06:51:51;;;;;;;35.72;24.15;;;;;;;;;;5369548;23;20108;-64
2023/01/29 06:54:17;;;;;;;35.72;22.50;;;;;;;;;;4964156;28;20054;-64
2023/01/29 06:56:43;;;;;;;36.78;23.98;;;;;;;;;;4964338;28;20047;-64
2023/01/29 06:59:11;;;;;;;34.38;22.08;;;;;;;;;;4966423;28;20047;-64
2023/01/29 07:01:40;;;;;;;34.50;21.92;;;;;;;;;;4965656;28;20115;-64
2023/01/29 07:04:06;;;;;;;36.45;25.15;;;;;;;;;;4965962;28;20054;-64
2023/01/29 07:06:32;;;;;;;35.17;24.13;;;;;;;;;;4964623;28;20054;-64
2023/01/29 07:08:58;;;;;;;36.08;25.17;;;;;;;;;;4965551;28;20042;-64
2023/01/29 07:11:24;;;;;;;38.10;24.70;;;;;;;;;;4966259;28;20049;-64
2023/01/29 07:13:50;;;;;;;37.55;24.95;;;;;;;;;;4948107;28;20412;-64
2023/01/29 07:16:17;;;;;;;32.50;24.20;;;;;;;;;;4963536;28;20081;-64
2023/01/29 07:18:43;;;;;;;37.05;24.10;;;;;;;;;;4948051;28;20564;-64
2023/01/29 07:21:09;;;;;;;35.83;24.27;;;;;;;;;;4965719;28;20047;-64
2023/01/29 07:23:35;;;;;;;37.25;24.73;;;;;;;;;;4960924;28;20133;-64
2023/01/29 07:26:02;;;;;;;33.55;23.75;;;;;;;;;;4968461;28;20093;-65
2023/01/29 07:28:28;;;;;;;38.15;24.52;;;;;;;;;;4951408;28;20047;-64
2023/01/29 07:30:58;;;;;;;38.33;24.23;;;;;;;;;;4969218;28;20038;-64
2023/01/29 07:33:24;;;;;;;38.72;24.35;;;;;;;;;;4969874;28;20070;-64
2023/01/29 07:45:06;;;;;;;36.70;23.40;;;;;;;;;;5484308;23;20512;-64
2023/01/29 07:47:32;;;;;;;37.20;23.20;;;;;;;;;;4961161;28;20065;-64
2023/01/29 07:49:58;;;;;;;35.15;22.58;;;;;;;;;;4964617;28;20058;-64
2023/01/29 07:52:24;;;;;;;36.40;23.45;;;;;;;;;;4983287;28;20038;-64
2023/01/29 07:54:50;;;;;;;31.00;21.42;;;;;;;;;;4960714;28;20046;-64
2023/01/29 07:57:15;;;;;;;33.55;22.92;;;;;;;;;;4972614;28;20159;-64
2023/01/29 07:59:42;;;;;;;37.72;22.73;;;;;;;;;;4979592;28;20037;-64
2023/01/29 08:02:12;;;;;;;37.45;23.77;;;;;;;;;;4983210;28;20046;-64
2023/01/29 08:04:37;;;;;;;35.17;22.48;;;;;;;;;;4965519;28;20563;-64
2023/01/29 08:07:03;;;;;;;36.47;22.75;;;;;;;;;;4964004;28;20061;-64
2023/01/29 08:09:30;;;;;;;38.17;23.02;;;;;;;;;;4963065;28;20042;-63
2023/01/29 08:11:56;;;;;;;36.00;24.25;;;;;;;;;;4979923;28;20073;-65
2023/01/29 08:14:23;;;;;;;39.72;24.52;;;;;;;;;;4983197;28;20403;-63
2023/01/29 08:16:49;;;;;;;35.60;23.00;;;;;;;;;;4980968;28;20137;-64
2023/01/29 08:19:15;;;;;;;38.03;24.05;;;;;;;;;;4964319;28;20127;-65
2023/01/29 08:21:41;;;;;;;40.85;25.38;;;;;;;;;;4983566;28;20488;-65
2023/01/29 08:24:07;;;;;;;38.90;24.65;;;;;;;;;;4983638;28;20046;-65
2023/01/29 08:26:33;;;;;;;40.70;24.30;;;;;;;;;;4965850;28;20046;-65
2023/01/29 08:28:59;;;;;;;40.83;25.42;;;;;;;;;;4962904;28;20061;-65
2023/01/29 08:31:25;;;;;;;40.22;25.15;;;;;;;;;;4965028;28;20112;-65
2023/01/29 08:33:53;;;;;;;38.88;23.65;;;;;;;;;;4983379;28;20451;-64
2023/01/29 08:36:19;;;;;;;40.83;25.25;;;;;;;;;;4961150;28;20424;-65
2023/01/29 08:38:45;;;;;;;41.42;24.25;;;;;;;;;;4976753;28;20046;-65
2023/01/29 08:41:11;;;;;;;40.22;24.23;;;;;;;;;;4961017;28;20049;-65
2023/01/29 08:43:37;;;;;;;46.25;26.13;;;;;;;;;;4955802;28;20069;-67
2023/01/29 08:46:07;;;;;;;39.38;24.25;;;;;;;;;;4961751;28;20070;-66
2023/01/29 08:48:33;;;;;;;40.65;24.85;;;;;;;;;;4976939;28;20054;-65
2023/01/29 08:51:01;;;;;;;42.00;25.02;;;;;;;;;;4981901;28;20049;-66
2023/01/29 08:53:28;;;;;;;40.65;25.45;;;;;;;;;;4975173;28;20053;-65
2023/01/29 08:55:54;;;;;;;41.05;24.30;;;;;;;;;;4979917;28;20042;-64
2023/01/29 08:58:20;;;;;;;46.28;24.35;;;;;;;;;;4979692;28;20046;-65
2023/01/29 09:00:46;;;;;;;45.53;23.42;;;;;;;;;;4965021;28;20776;-64
2023/01/29 09:03:12;;;;;;;43.15;24.80;;;;;;;;;;4985520;28;20042;-64
2023/01/29 09:05:39;;;;;;;37.80;24.77;;;;;;;;;;4985787;28;20039;-64
2023/01/29 09:08:05;;;;;;;41.20;23.35;;;;;;;;;;4974165;28;20042;-64
2023/01/29 09:10:32;;;;;;;42.05;24.85;;;;;;;;;;4955629;28;20747;-64
2023/01/29 09:12:57;;;;;;;40.50;24.30;;;;;;;;;;4959892;28;20109;-64
2023/01/29 09:15:24;;;;;;;43.38;24.83;;;;;;;;;;4983227;28;20046;-64
2023/01/29 09:17:50;;;;;;;43.88;25.40;;;;;;;;;;4963380;28;20153;-63
2023/01/29 09:20:16;;;;;;;42.65;24.13;;;;;;;;;;4979479;28;20480;-63
2023/01/29 09:22:43;;;;;;;43.25;25.55;;;;;;;;;;4978759;28;20053;-63
2023/01/29 09:25:09;;;;;;;39.20;24.13;;;;;;;;;;4979704;28;20081;-64
2023/01/29 09:27:36;;;;;;;43.83;25.42;;;;;;;;;;4962287;28;20904;-71
2023/01/29 09:30:02;;;;;;;41.25;23.10;;;;;;;;;;4979075;28;20056;-65
2023/01/29 09:32:29;;;;;;;44.33;26.00;;;;;;;;;;4960390;28;20125;-65
2023/01/29 09:34:55;;;;;;;43.80;24.10;;;;;;;;;;4978005;28;20046;-65
2023/01/29 09:37:22;;;;;;;42.88;25.08;;;;;;;;;;4964199;28;20078;-65
2023/01/29 09:39:48;;;;;;;44.17;24.98;;;;;;;;;;4979600;28;20507;-65
2023/01/29 09:42:26;;;;;;;44.75;26.70;;;;;;;;;;4978831;28;20042;-65
2023/01/29 09:44:55;;;;;;;42.00;24.60;;;;;;;;;;4972692;28;20091;-65
2023/01/29 09:47:23;;;;;;;41.45;24.50;;;;;;;;;;4962224;28;20076;-65
2023/01/29 09:49:55;;;;;;;43.33;25.45;;;;;;;;;;4980156;28;20042;-65
2023/01/29 09:52:31;;;;;;;44.17;24.92;;;5.00;99.90;;;;;;4963410;28;20057;-65
2023/01/29 09:55:17;;;;;;;38.50;22.75;;;;;;;;;;4980167;28;20073;-65
2023/01/29 09:57:49;;;;;;;40.97;23.45;;;;;;;;;;4981081;28;20046;-65
2023/01/29 10:00:29;;;;;;;42.95;24.70;;;;;;;;;;4965741;28;20053;-65
2023/01/29 10:03:04;;;;;;;39.53;24.15;;;;;;;;;;4959629;28;20129;-66
2023/01/29 10:05:53;;;;;;;41.33;23.63;;;;;;;;;;4981755;28;20066;-65
2023/01/29 10:08:26;;;;;;;42.78;24.13;;;;;;;;;;4942356;28;20046;-65
2023/01/29 10:10:55;;;;;;;40.30;24.58;;;;;;;;;;4963172;28;20076;-65
2023/01/29 10:13:44;;;;;;;37.55;23.70;;;;;;;;;;4962753;28;20049;-65
2023/01/29 10:16:25;;;;;;;40.85;23.20;;;;;;;;;;4960444;28;20047;-65
2023/01/29 10:18:57;;;;;;;39.88;23.13;;;;;;;;;;4966794;28;20143;-66
2023/01/29 10:21:23;;;;;;;48.78;24.75;;;;;;;;;;4971054;28;20649;-65
2023/01/29 10:24:18;;;;;;;38.92;23.80;;;;;;;;;;4973306;28;20085;-65
2023/01/29 10:26:44;;;;;;;45.08;23.88;;;;;;;;;;4915160;28;20059;-64
2023/01/29 10:29:15;;;;;;;41.10;23.30;;;;;;;;;;4962496;28;20057;-65
2023/01/29 10:31:42;;;;;;;44.00;25.35;;;;;;;;;;4960418;28;20047;-65
2023/01/29 10:34:14;;;;;;;42.08;24.45;;;;;;;;;;4958977;28;20082;-65
2023/01/29 10:36:47;;;;;;;45.58;24.33;;;;;;;;;;4962017;28;20137;-65
2023/01/29 10:39:24;;;;;;;42.17;25.55;;;;;;;;;;4950711;28;20043;-65
2023/01/29 10:42:25;;;;;;;46.38;25.10;;;;;;;;;;4975718;28;20050;-65
2023/01/29 10:45:09;;;;;;;45.63;25.60;;;;;;;;;;4862354;29;20045;-64
2023/01/29 10:47:39;;;;;;;43.38;24.55;;;;;;;;;;4947235;28;20090;-65
2023/01/29 10:50:08;;;;;;;44.33;24.70;;;;;;;;;;4963848;28;20548;-64
2023/01/29 10:52:43;;;;;;;44.47;25.00;;;;;;;;;;4965177;28;20046;-64
2023/01/29 10:55:19;;;;;;;47.70;26.00;;;;;;;;;;4974392;28;20046;-64
2023/01/29 10:57:48;;;;;;;44.65;25.95;;;;;;;;;;4980304;28;20038;-64
2023/01/29 11:00:20;;;;;;;47.78;26.88;;;;;;;;;;4977415;28;20061;-65
2023/01/29 11:02:47;;;;;;;47.40;26.85;;;;;;;;;;4960633;28;20070;-65
2023/01/29 11:05:23;;;;;;;49.47;26.75;;;5.10;99.90;;;;;;4978041;28;20042;-65
2023/01/29 11:07:54;;;;;;;54.58;28.50;;;;;;;;;;4975502;28;20488;-65
2023/01/29 11:10:21;;;;;;;49.80;28.27;;;;;;;;;;4981408;28;20104;-66
2023/01/29 11:12:47;;;;;;;45.05;26.90;;;;;;;;;;4984079;28;20799;-65
2023/01/29 11:15:17;;;;;;;43.78;25.52;;;;;;;;;;4980510;28;20101;-65
2023/01/29 11:24:11;;;;;;;43.08;26.98;;;;;;;;;;5222720;23;20050;-65
2023/01/29 11:26:39;;;;;;;44.72;25.70;;;;;;;;;;4948641;28;20493;-65
2023/01/29 11:29:05;;;;;;;46.15;25.55;;;;;;;;;;4965690;28;20831;-65
2023/01/29 11:31:38;;;;;;;41.60;23.88;;;;;;;;;;4948490;28;20046;-65
2023/01/29 11:34:06;;;;;;;41.88;23.48;;;;;;;;;;4948638;28;20046;-65
2023/01/29 11:36:37;;;;;;;44.85;25.55;;;;;;;;;;4946982;28;20051;-65
2023/01/29 11:39:11;;;;;;;40.83;22.88;;;;;;;;;;4966327;28;20045;-65
2023/01/29 11:41:47;;;;;;;43.80;23.65;;;;;;;;;;4948149;28;20409;-64
2023/01/29 11:44:19;;;;;;;;;;;5.50;99.90;;;;;;4948453;28;20042;-64
2023/01/29 11:46:45;;;;;;;46.22;24.17;;;;;;;;;;4949197;28;19932;-64
2023/01/29 11:49:22;;;;;;;43.17;24.83;;;;;;;;;;4948362;28;20097;-64
2023/01/29 11:51:54;;;;;;;41.75;24.60;;;;;;;;;;4966483;28;20141;-64
2023/01/29 11:54:21;;;;;;;42.40;24.40;;;;;;;;;;4965647;28;20039;-64
2023/01/29 11:56:47;;;;;;;46.80;23.77;;;;;;;;;;4947184;28;20050;-65
2023/01/29 11:59:28;;;;;;;38.30;23.92;;;;;;;;;;4948828;28;20149;-65
2023/01/29 12:01:55;;;;;;;42.90;25.30;;;;;;;;;;4947310;28;20408;-65
2023/01/29 12:04:22;;;;;;;45.83;27.27;;;;;;;;;;4947780;28;20050;-65
2023/01/29 12:06:51;;;;;;;41.38;25.35;;;;;;;;;;4945602;28;20046;-65
2023/01/29 12:09:28;;;;;;;43.22;26.63;;;;;;;;;;4946077;28;20058;-65
2023/01/29 12:11:54;;;;;;;45.88;26.27;;;;;;;;;;4949450;28;20724;-65
2023/01/29 12:14:26;;;;;;;45.00;25.65;;;;;;;;;;4950760;28;20053;-65
2023/01/29 12:16:57;;;;;;;45.40;27.02;;;;;;;;;;4968715;28;20838;-65
2023/01/29 12:19:42;;;;;;;38.75;24.20;;;;;;;;;;4968493;28;20035;-65
2023/01/29 12:22:17;;;;;;;42.57;24.07;;;;;;;;;;4951005;28;20105;-65
2023/01/29 12:24:43;;;;;;;;;;;;;;;;;;4950476;28;20042;-65
2023/01/29 12:27:14;;;;;;;45.70;25.52;;;;;;;;;;4969121;28;19929;-65
2023/01/29 12:29:40;;;;;;;47.58;25.80;;;;;;;;;;4950590;28;20067;-65
2023/01/29 12:32:25;;;;;;;43.17;25.52;;;;;;;;;;4968931;28;20042;-65
2023/01/29 12:34:57;;;;;;;47.17;27.30;;;;;;;;;;4944436;28;20073;-65
2023/01/29 12:37:36;;;;;;;46.33;26.98;;;;;;;;;;4950297;28;20146;-65
2023/01/29 12:40:02;;;;;;;48.33;27.48;;;;;;;;;;4964029;28;20039;-65
2023/01/29 12:42:28;;;;;;;48.25;26.98;;;5.30;99.90;;;;;;4950892;28;20466;-65
2023/01/29 12:44:57;;;;;;;47.72;25.70;;;;;;;;;;4968240;28;20121;-65
2023/01/29 12:47:37;;;;;;;43.13;24.98;;;;;;;;;;4948981;28;20057;-65
2023/01/29 12:50:14;;;;;;;46.03;27.40;;;;;;;;;;4965444;28;20133;-65
2023/01/29 12:52:45;;;;;;;45.63;26.35;;;;;;;;;;4950934;28;20046;-65
2023/01/29 12:55:19;;;;;;;38.60;22.67;;;;;;;;;;4950774;28;20051;-65
2023/01/29 12:58:01;;;;;;;42.47;24.23;;;;;;;;;;4964611;28;20082;-65
2023/01/29 13:00:35;;;;;;;50.28;26.85;;;;;;;;;;4944091;29;20841;-65
2023/01/29 13:03:03;;;;;;;45.92;25.25;;;;;;;;;;4967318;28;20046;-65
2023/01/29 13:05:33;;;;;;;45.97;25.63;;;;;;;;;;4940580;28;20042;-65
2023/01/29 13:08:11;;;;;;;44.05;26.35;;;;;;;;;;4950503;28;20057;-65
2023/01/29 13:10:40;;;;;;;52.92;26.73;;;;;;;;;;4964410;28;20149;-65
2023/01/29 13:13:13;;;;;;;43.85;26.58;;;;;;;;;;4964909;28;20050;-65
2023/01/29 13:15:40;;;;;;;46.00;26.05;;;;;;;;;;4967549;28;20047;-65
2023/01/29 13:18:24;;;;;;;45.50;26.55;;;;;;;;;;4967167;28;20393;-65
2023/01/29 13:20:51;;;;;;;44.67;26.67;;;;;;;;;;4965474;28;20070;-65
2023/01/29 13:23:21;;;;;;;48.95;28.02;;;;;;;;;;4967727;28;20142;-65
2023/01/29 13:25:51;;;;;;;46.10;25.67;;;;;;;;;;4943570;28;20058;-65
2023/01/29 13:28:18;;;;;;;49.60;27.88;;;;;;;;;;4946793;28;20045;-66
2023/01/29 13:30:44;;;;;;;49.13;27.67;;;;;;;;;;4947085;28;20043;-66
2023/01/29 13:33:20;;;;;;;48.22;25.60;;;;;;;;;;4950334;28;20412;-65
2023/01/29 13:35:47;;;;;;;46.75;26.90;;;;;;;;;;4964996;28;20066;-65
2023/01/29 13:38:24;;;;;;;47.42;26.67;;;;;;;;;;4967067;28;20086;-65
2023/01/29 13:40:51;;;;;;;45.38;26.52;;;;;;;;;;4967214;28;20078;-65
2023/01/29 13:43:22;;;;;;;52.40;27.17;;;;;;;;;;4967394;28;20039;-66
2023/01/29 13:45:50;;;;;;;46.15;25.98;;;;;;;;;;4966697;28;20047;-65
2023/01/29 13:48:26;;;;;;;43.30;24.92;;;;;;;;;;4949807;28;20074;-66
2023/01/29 13:50:54;;;;;;;50.90;27.17;;;;;;;;;;4949253;28;20517;-65
2023/01/29 13:53:26;;;;;;;48.50;27.20;;;;;;;;;;4949488;28;20046;-66
2023/01/29 13:55:52;;;;;;;47.42;26.95;;;;;;;;;;4949213;28;20046;-65
2023/01/29 13:58:45;;;;;;;45.58;27.83;;;;;;;;;;4965865;28;20417;-65
2023/01/29 14:01:10;;;;;;;48.42;25.42;;;;;;;;;;4957421;28;20113;-65
2023/01/29 14:06:39;;;;;;;49.13;27.90;;;;;;;;;;5652154;23;20066;-66
2023/01/29 14:09:25;;;;;;;53.90;30.08;;;;;;;;;;4942908;28;20058;-66
2023/01/29 14:11:52;;;;;;;52.67;28.05;;;;;;;;;;4948118;28;20043;-65
2023/01/29 14:17:00;;;;;;;49.55;26.70;;;;;;;;;;5404377;23;20085;-65
2023/01/29 14:19:26;;;;;;;50.25;27.55;;;;;;;;;;4948621;28;20070;-66
2023/01/29 14:21:52;;;;;;;51.42;28.38;;;;;;;;;;4964935;28;20755;-65
2023/01/29 14:24:20;;;;;;;48.78;28.15;;;;;;;;;;4963491;28;20050;-66
2023/01/29 14:26:47;;;;;;;53.03;29.25;;;;;;;;;;4932370;29;20098;-65
2023/01/29 14:29:14;;;;;;;48.47;27.83;;;;;;;;;;4935756;28;20061;-65
2023/01/29 14:31:46;;;;;;;54.20;30.30;;;;;;;;;;4935179;28;20051;-65
2023/01/29 14:34:15;;;;;;;55.70;29.02;;;;;;;;;;4931766;28;20043;-66
2023/01/29 14:36:42;;;;;;;54.05;29.67;;;;;;;;;;4936036;28;20400;-65
2023/01/29 14:39:41;;;;;;;49.45;28.55;;;;;;;;;;4936279;28;20492;-65
2023/01/29 14:42:18;;;;;;;52.28;28.30;;;;;;;;;;4892449;28;20051;-65
2023/01/29 14:44:44;;;;;;;62.03;29.80;;;;;;;;;;4952767;28;20079;-65
2023/01/29 14:47:29;;;;;;;55.72;29.40;;;;;;;;;;4931256;28;20047;-66
2023/01/29 14:49:56;;;;;;;52.53;29.23;;;;;;;;;;4947669;28;20042;-65
2023/01/29 14:52:29;;;;;;;54.97;30.20;;;;;;;;;;4951048;28;20074;-65
2023/01/29 14:54:59;;;;;;;56.58;30.13;;;;;;;;;;4952036;28;20046;-65
2023/01/29 14:57:25;;;;;;;57.60;31.23;;;;;;;;;;4952214;28;20075;-65
2023/01/29 14:59:59;;;;;;;52.97;30.42;;;5.10;99.90;;;;;;4946306;28;20456;-66
2023/01/29 15:02:32;;;;;;;55.38;30.40;;;;;;;;;;4958677;28;20492;-65
2023/01/29 15:04:59;;;;;;;56.83;31.42;;;;;;;;;;4949062;28;20046;-65
2023/01/29 15:07:29;;;;;;;56.40;30.55;;;;;;;;;;4941849;28;20203;-65
2023/01/29 15:10:13;;;;;;;53.45;29.23;;;;;;;;;;4954327;28;20082;-65
2023/01/29 15:12:49;;;;;;;56.13;30.00;;;;;;;;;;4931547;29;20043;-65
2023/01/29 15:15:15;;;;;;;;;;;;;;;;;;4950484;28;20047;-65
2023/01/29 15:17:45;;;;;;;60.92;31.52;;;;;;;;;;4958286;28;19937;-65
2023/01/29 15:20:28;;;;;;;57.30;30.85;;;;;;;;;;4931538;28;20074;-65
2023/01/29 15:22:54;;;;;;;59.38;31.00;;;;;;;;;;4940084;29;20134;-65
2023/01/29 15:25:20;;;;;;;61.05;31.60;;;;;;;;;;4953489;28;20047;-65
2023/01/29 15:27:47;;;;;;;57.63;32.10;;;5.20;99.90;;;;;;4955110;28;20051;-65
2023/01/29 15:30:18;;;;;;;57.10;31.48;;;;;;;;;;4948352;28;20042;-65
2023/01/29 15:32:44;;;;;;;60.97;32.33;;;;;;;;;;4931109;28;20121;-69
2023/01/29 15:35:28;;;;;;;64.13;31.85;;;;;;;;;;4936450;28;20130;-68
2023/01/29 15:41:22;;;;;;;66.80;32.80;;;;;;;;;;4958914;28;20042;-70